sensor_id;sensor_type;location;lat;lon;timestamp;temperature;humidity
35746;DHT22;21870;42.812;74.628;2023-04-15T00:00:43;22.80;87.40
35746;DHT22;21870;42.812;74.628;2023-04-15T00:03:09;22.80;87.90
35746;DHT22;21870;42.812;74.628;2023-04-15T00:05:36;22.90;88.60
35746;DHT22;21870;42.812;74.628;2023-04-15T00:08:02;22.90;88.80
35746;DHT22;21870;42.812;74.628;2023-04-15T00:10:28;23.00;88.90
35746;DHT22;21870;42.812;74.628;2023-04-15T00:12:54;23.00;89.20
35746;DHT22;21870;42.812;74.628;2023-04-15T00:15:20;23.10;89.70
35746;DHT22;21870;42.812;74.628;2023-04-15T00:17:49;23.20;90.10
35746;DHT22;21870;42.812;74.628;2023-04-15T00:20:16;22.80;92.50
35746;DHT22;21870;42.812;74.628;2023-04-15T00:22:42;22.50;95.90
35746;DHT22;21870;42.812;74.628;2023-04-15T00:25:08;22.20;99.70
35746;DHT22;21870;42.812;74.628;2023-04-15T00:27:35;21.80;99.90
35746;DHT22;21870;42.812;74.628;2023-04-15T00:30:01;21.60;99.90
35746;DHT22;21870;42.812;74.628;2023-04-15T00:32:28;21.20;99.90
35746;DHT22;21870;42.812;74.628;2023-04-15T00:34:54;21.10;99.90
35746;DHT22;21870;42.812;74.628;2023-04-15T00:37:21;20.90;99.90
35746;DHT22;21870;42.812;74.628;2023-04-15T00:39:48;20.80;99.90
35746;DHT22;21870;42.812;74.628;2023-04-15T00:42:15;20.70;99.90
35746;DHT22;21870;42.812;74.628;2023-04-15T00:44:41;20.50;99.90
35746;DHT22;21870;42.812;74.628;2023-04-15T00:47:08;20.40;99.90
35746;DHT22;21870;42.812;74.628;2023-04-15T00:49:34;20.30;99.90
35746;DHT22;21870;42.812;74.628;2023-04-15T00:52:00;20.00;99.90
35746;DHT22;21870;42.812;74.628;2023-04-15T00:54:27;19.90;99.90
35746;DHT22;21870;42.812;74.628;2023-04-15T00:56:53;19.70;99.90
35746;DHT22;21870;42.812;74.628;2023-04-15T00:59:19;19.50;99.90
35746;DHT22;21870;42.812;74.628;2023-04-15T01:01:46;19.30;99.90
35746;DHT22;21870;42.812;74.628;2023-04-15T01:04:12;19.20;99.90
35746;DHT22;21870;42.812;74.628;2023-04-15T01:06:38;19.20;99.90
35746;DHT22;21870;42.812;74.628;2023-04-15T01:09:04;19.10;99.90
35746;DHT22;21870;42.812;74.628;2023-04-15T01:11:31;18.90;99.90
35746;DHT22;21870;42.812;74.628;2023-04-15T01:14:01;18.90;99.90
35746;DHT22;21870;42.812;74.628;2023-04-15T01:16:27;18.90;99.90
35746;DHT22;21870;42.812;74.628;2023-04-15T01:18:56;18.90;99.90
35746;DHT22;21870;42.812;74.628;2023-04-15T01:21:23;18.80;99.90
35746;DHT22;21870;42.812;74.628;2023-04-15T01:23:50;18.80;99.90
35746;DHT22;21870;42.812;74.628;2023-04-15T01:26:18;18.70;99.90
35746;DHT22;21870;42.812;74.628;2023-04-15T01:28:44;18.70;99.90
35746;DHT22;21870;42.812;74.628;2023-04-15T01:31:12;18.60;99.90
35746;DHT22;21870;42.812;74.628;2023-04-15T01:33:39;18.60;99.90
35746;DHT22;21870;42.812;74.628;2023-04-15T01:36:07;18.60;99.90
35746;DHT22;21870;42.812;74.628;2023-04-15T01:38:35;18.50;99.90
35746;DHT22;21870;42.812;74.628;2023-04-15T01:41:02;18.40;99.90
35746;DHT22;21870;42.812;74.628;2023-04-15T01:43:29;18.40;99.90
35746;DHT22;21870;42.812;74.628;2023-04-15T01:45:55;18.40;99.90
35746;DHT22;21870;42.812;74.628;2023-04-15T01:48:22;18.40;99.90
35746;DHT22;21870;42.812;74.628;2023-04-15T01:50:48;18.30;99.90
35746;DHT22;21870;42.812;74.628;2023-04-15T01:53:15;18.20;99.90
35746;DHT22;21870;42.812;74.628;2023-04-15T01:55:41;18.10;99.90
35746;DHT22;21870;42.812;74.628;2023-04-15T01:58:07;18.10;99.90
35746;DHT22;21870;42.812;74.628;2023-04-15T02:00:33;18.00;99.90
35746;DHT22;21870;42.812;74.628;2023-04-15T02:03:00;17.90;99.90
35746;DHT22;21870;42.812;74.628;2023-04-15T02:05:26;17.90;99.90
35746;DHT22;21870;42.812;74.628;2023-04-15T02:07:52;17.90;99.90
35746;DHT22;21870;42.812;74.628;2023-04-15T02:10:18;17.80;99.90
35746;DHT22;21870;42.812;74.628;2023-04-15T02:12:44;17.80;99.90
35746;DHT22;21870;42.812;74.628;2023-04-15T02:15:11;17.70;99.90
35746;DHT22;21870;42.812;74.628;2023-04-15T02:17:37;17.60;99.90
35746;DHT22;21870;42.812;74.628;2023-04-15T02:20:03;17.60;99.90
35746;DHT22;21870;42.812;74.628;2023-04-15T02:22:33;17.50;99.90
35746;DHT22;21870;42.812;74.628;2023-04-15T02:24:59;17.30;99.90
35746;DHT22;21870;42.812;74.628;2023-04-15T02:27:25;17.20;99.90
35746;DHT22;21870;42.812;74.628;2023-04-15T02:29:53;17.00;99.90
35746;DHT22;21870;42.812;74.628;2023-04-15T02:32:19;16.90;99.90
35746;DHT22;21870;42.812;74.628;2023-04-15T02:34:47;16.90;99.90
35746;DHT22;21870;42.812;74.628;2023-04-15T02:37:14;16.90;99.90
35746;DHT22;21870;42.812;74.628;2023-04-15T02:39:40;16.70;99.90
35746;DHT22;21870;42.812;74.628;2023-04-15T02:42:07;16.80;99.90
35746;DHT22;21870;42.812;74.628;2023-04-15T02:44:33;16.80;99.90
35746;DHT22;21870;42.812;74.628;2023-04-15T02:47:01;16.80;99.90
35746;DHT22;21870;42.812;74.628;2023-04-15T02:49:28;16.80;99.90
35746;DHT22;21870;42.812;74.628;2023-04-15T02:51:55;16.80;99.90
35746;DHT22;21870;42.812;74.628;2023-04-15T02:54:23;16.80;99.90
35746;DHT22;21870;42.812;74.628;2023-04-15T02:56:49;16.80;99.90
35746;DHT22;21870;42.812;74.628;2023-04-15T02:59:15;16.90;99.90
35746;DHT22;21870;42.812;74.628;2023-04-15T03:01:41;16.90;99.90
35746;DHT22;21870;42.812;74.628;2023-04-15T03:04:08;16.90;99.90
35746;DHT22;21870;42.812;74.628;2023-04-15T03:06:34;16.80;99.90
35746;DHT22;21870;42.812;74.628;2023-04-15T03:09:00;16.80;99.90
35746;DHT22;21870;42.812;74.628;2023-04-15T03:11:28;16.90;99.90
35746;DHT22;21870;42.812;74.628;2023-04-15T03:13:54;16.90;99.90
35746;DHT22;21870;42.812;74.628;2023-04-15T03:16:20;17.00;99.90
35746;DHT22;21870;42.812;74.628;2023-04-15T03:18:46;17.00;99.90
35746;DHT22;21870;42.812;74.628;2023-04-15T03:21:12;17.10;99.90
35746;DHT22;21870;42.812;74.628;2023-04-15T03:23:38;17.10;99.90
35746;DHT22;21870;42.812;74.628;2023-04-15T03:26:05;17.20;99.90
35746;DHT22;21870;42.812;74.628;2023-04-15T03:28:31;17.10;99.90
35746;DHT22;21870;42.812;74.628;2023-04-15T03:30:58;17.10;99.90
35746;DHT22;21870;42.812;74.628;2023-04-15T03:33:24;17.10;99.90
35746;DHT22;21870;42.812;74.628;2023-04-15T03:35:53;17.10;99.90
35746;DHT22;21870;42.812;74.628;2023-04-15T03:38:19;17.00;99.90
35746;DHT22;21870;42.812;74.628;2023-04-15T03:40:46;17.10;99.90
35746;DHT22;21870;42.812;74.628;2023-04-15T03:43:12;17.10;99.90
35746;DHT22;21870;42.812;74.628;2023-04-15T03:45:38;17.00;99.90
35746;DHT22;21870;42.812;74.628;2023-04-15T03:48:04;17.00;99.90
35746;DHT22;21870;42.812;74.628;2023-04-15T03:50:31;17.00;99.90
35746;DHT22;21870;42.812;74.628;2023-04-15T03:52:57;16.90;99.90
35746;DHT22;21870;42.812;74.628;2023-04-15T03:55:23;16.90;99.90
35746;DHT22;21870;42.812;74.628;2023-04-15T03:57:50;16.80;99.90
35746;DHT22;21870;42.812;74.628;2023-04-15T04:00:16;16.80;99.90
35746;DHT22;21870;42.812;74.628;2023-04-15T04:02:42;16.70;99.90
35746;DHT22;21870;42.812;74.628;2023-04-15T04:05:08;16.60;99.90
35746;DHT22;21870;42.812;74.628;2023-04-15T04:07:34;16.50;99.90
35746;DHT22;21870;42.812;74.628;2023-04-15T04:10:01;16.30;99.90
35746;DHT22;21870;42.812;74.628;2023-04-15T04:12:28;16.30;99.90
35746;DHT22;21870;42.812;74.628;2023-04-15T04:14:54;16.20;99.90
35746;DHT22;21870;42.812;74.628;2023-04-15T04:17:20;16.10;99.90
35746;DHT22;21870;42.812;74.628;2023-04-15T04:19:50;16.00;99.90
35746;DHT22;21870;42.812;74.628;2023-04-15T04:22:16;16.00;99.90
35746;DHT22;21870;42.812;74.628;2023-04-15T04:24:42;16.00;99.90
35746;DHT22;21870;42.812;74.628;2023-04-15T04:27:08;16.00;99.90
35746;DHT22;21870;42.812;74.628;2023-04-15T04:29:34;15.90;99.90
35746;DHT22;21870;42.812;74.628;2023-04-15T04:32:00;15.80;99.90
35746;DHT22;21870;42.812;74.628;2023-04-15T04:34:26;15.80;99.90
35746;DHT22;21870;42.812;74.628;2023-04-15T04:36:52;15.80;99.90
35746;DHT22;21870;42.812;74.628;2023-04-15T04:39:18;15.80;99.90
35746;DHT22;21870;42.812;74.628;2023-04-15T04:41:44;15.90;99.90
35746;DHT22;21870;42.812;74.628;2023-04-15T04:44:10;15.90;99.90
35746;DHT22;21870;42.812;74.628;2023-04-15T04:46:37;15.90;99.90
35746;DHT22;21870;42.812;74.628;2023-04-15T04:49:03;15.90;99.90
35746;DHT22;21870;42.812;74.628;2023-04-15T04:51:29;15.80;99.90
35746;DHT22;21870;42.812;74.628;2023-04-15T04:53:58;15.80;99.90
35746;DHT22;21870;42.812;74.628;2023-04-15T04:56:25;15.70;99.90
35746;DHT22;21870;42.812;74.628;2023-04-15T04:58:51;15.70;99.90
35746;DHT22;21870;42.812;74.628;2023-04-15T05:01:17;15.60;99.90
35746;DHT22;21870;42.812;74.628;2023-04-15T05:03:43;15.60;99.90
35746;DHT22;21870;42.812;74.628;2023-04-15T05:06:09;15.70;99.90
35746;DHT22;21870;42.812;74.628;2023-04-15T05:08:35;15.80;99.90
35746;DHT22;21870;42.812;74.628;2023-04-15T05:11:02;15.70;99.90
35746;DHT22;21870;42.812;74.628;2023-04-15T05:13:28;15.60;99.90
35746;DHT22;21870;42.812;74.628;2023-04-15T05:15:55;15.60;99.90
35746;DHT22;21870;42.812;74.628;2023-04-15T05:18:21;15.60;99.90
35746;DHT22;21870;42.812;74.628;2023-04-15T05:20:47;15.60;99.90
35746;DHT22;21870;42.812;74.628;2023-04-15T05:23:15;15.70;99.90
35746;DHT22;21870;42.812;74.628;2023-04-15T05:25:42;15.70;99.90
35746;DHT22;21870;42.812;74.628;2023-04-15T05:28:08;15.70;99.90
35746;DHT22;21870;42.812;74.628;2023-04-15T05:30:34;15.70;99.90
35746;DHT22;21870;42.812;74.628;2023-04-15T05:33:00;15.70;99.90
35746;DHT22;21870;42.812;74.628;2023-04-15T05:35:26;15.80;99.90
35746;DHT22;21870;42.812;74.628;2023-04-15T05:37:55;15.80;99.90
35746;DHT22;21870;42.812;74.628;2023-04-15T05:40:21;15.80;99.90
35746;DHT22;21870;42.812;74.628;2023-04-15T05:42:48;15.80;99.90
35746;DHT22;21870;42.812;74.628;2023-04-15T05:45:14;15.80;99.90
35746;DHT22;21870;42.812;74.628;2023-04-15T05:47:40;15.70;99.90
35746;DHT22;21870;42.812;74.628;2023-04-15T05:50:06;15.70;99.90
35746;DHT22;21870;42.812;74.628;2023-04-15T05:52:32;15.70;99.90
35746;DHT22;21870;42.812;74.628;2023-04-15T05:54:58;15.70;99.90
35746;DHT22;21870;42.812;74.628;2023-04-15T05:57:25;15.80;99.90
35746;DHT22;21870;42.812;74.628;2023-04-15T05:59:51;15.80;99.90
35746;DHT22;21870;42.812;74.628;2023-04-15T06:02:17;16.00;99.90
35746;DHT22;21870;42.812;74.628;2023-04-15T06:04:43;16.00;99.90
35746;DHT22;21870;42.812;74.628;2023-04-15T06:07:09;16.10;99.90
35746;DHT22;21870;42.812;74.628;2023-04-15T06:09:35;16.10;99.90
35746;DHT22;21870;42.812;74.628;2023-04-15T06:12:01;16.20;99.90
35746;DHT22;21870;42.812;74.628;2023-04-15T06:14:28;16.30;99.90
35746;DHT22;21870;42.812;74.628;2023-04-15T06:16:54;16.20;99.90
35746;DHT22;21870;42.812;74.628;2023-04-15T06:19:20;16.30;99.90
35746;DHT22;21870;42.812;74.628;2023-04-15T06:21:46;16.30;99.90
35746;DHT22;21870;42.812;74.628;2023-04-15T06:24:12;16.40;99.90
35746;DHT22;21870;42.812;74.628;2023-04-15T06:26:38;16.40;99.90
35746;DHT22;21870;42.812;74.628;2023-04-15T06:29:04;16.60;99.90
35746;DHT22;21870;42.812;74.628;2023-04-15T06:31:30;16.70;99.90
35746;DHT22;21870;42.812;74.628;2023-04-15T06:33:56;16.80;99.90
35746;DHT22;21870;42.812;74.628;2023-04-15T06:36:22;16.90;99.90
35746;DHT22;21870;42.812;74.628;2023-04-15T06:38:48;16.90;99.90
35746;DHT22;21870;42.812;74.628;2023-04-15T06:41:14;16.90;99.90
35746;DHT22;21870;42.812;74.628;2023-04-15T06:43:40;17.00;99.90
35746;DHT22;21870;42.812;74.628;2023-04-15T06:46:07;17.10;99.90
35746;DHT22;21870;42.812;74.628;2023-04-15T06:48:33;17.10;99.90
35746;DHT22;21870;42.812;74.628;2023-04-15T06:50:59;17.20;99.90
35746;DHT22;21870;42.812;74.628;2023-04-15T06:53:25;17.30;99.90
35746;DHT22;21870;42.812;74.628;2023-04-15T06:55:54;17.40;99.90
35746;DHT22;21870;42.812;74.628;2023-04-15T06:58:21;17.40;99.90
35746;DHT22;21870;42.812;74.628;2023-04-15T07:00:47;17.50;99.90
35746;DHT22;21870;42.812;74.628;2023-04-15T07:03:14;17.60;99.90
35746;DHT22;21870;42.812;74.628;2023-04-15T07:05:40;17.60;99.90
35746;DHT22;21870;42.812;74.628;2023-04-15T07:08:06;17.50;99.90
35746;DHT22;21870;42.812;74.628;2023-04-15T07:10:33;17.50;99.90
35746;DHT22;21870;42.812;74.628;2023-04-15T07:12:59;17.60;99.90
35746;DHT22;21870;42.812;74.628;2023-04-15T07:15:26;17.60;99.90
35746;DHT22;21870;42.812;74.628;2023-04-15T07:17:52;17.60;99.90
35746;DHT22;21870;42.812;74.628;2023-04-15T07:20:19;17.60;99.90
35746;DHT22;21870;42.812;74.628;2023-04-15T07:22:45;17.60;99.90
35746;DHT22;21870;42.812;74.628;2023-04-15T07:25:11;17.50;99.90
35746;DHT22;21870;42.812;74.628;2023-04-15T07:27:37;17.50;99.90
35746;DHT22;21870;42.812;74.628;2023-04-15T07:30:03;17.50;99.90
35746;DHT22;21870;42.812;74.628;2023-04-15T07:32:29;17.40;99.90
35746;DHT22;21870;42.812;74.628;2023-04-15T07:34:55;17.40;99.90
35746;DHT22;21870;42.812;74.628;2023-04-15T07:37:22;17.40;99.90
35746;DHT22;21870;42.812;74.628;2023-04-15T07:39:48;17.30;99.90
35746;DHT22;21870;42.812;74.628;2023-04-15T07:42:14;17.20;99.90
35746;DHT22;21870;42.812;74.628;2023-04-15T07:44:41;17.10;99.90
35746;DHT22;21870;42.812;74.628;2023-04-15T07:47:07;17.10;99.90
35746;DHT22;21870;42.812;74.628;2023-04-15T07:49:33;17.10;99.90
35746;DHT22;21870;42.812;74.628;2023-04-15T07:51:59;17.00;99.90
35746;DHT22;21870;42.812;74.628;2023-04-15T07:54:25;16.90;99.90
35746;DHT22;21870;42.812;74.628;2023-04-15T07:56:52;17.00;99.90
35746;DHT22;21870;42.812;74.628;2023-04-15T07:59:18;17.00;99.90
35746;DHT22;21870;42.812;74.628;2023-04-15T08:01:44;16.90;99.90
35746;DHT22;21870;42.812;74.628;2023-04-15T08:04:10;16.90;99.90
35746;DHT22;21870;42.812;74.628;2023-04-15T08:06:36;17.00;99.90
35746;DHT22;21870;42.812;74.628;2023-04-15T08:09:05;17.10;99.90
35746;DHT22;21870;42.812;74.628;2023-04-15T08:11:31;17.10;99.90
35746;DHT22;21870;42.812;74.628;2023-04-15T08:13:57;17.10;99.90
35746;DHT22;21870;42.812;74.628;2023-04-15T08:16:25;17.20;99.90
35746;DHT22;21870;42.812;74.628;2023-04-15T08:18:55;17.10;99.90
35746;DHT22;21870;42.812;74.628;2023-04-15T08:21:21;17.00;99.90
35746;DHT22;21870;42.812;74.628;2023-04-15T08:23:50;17.00;99.90
35746;DHT22;21870;42.812;74.628;2023-04-15T08:26:17;17.00;99.90
35746;DHT22;21870;42.812;74.628;2023-04-15T08:28:44;17.00;99.90
35746;DHT22;21870;42.812;74.628;2023-04-15T08:31:14;17.00;99.90
35746;DHT22;21870;42.812;74.628;2023-04-15T08:33:41;17.10;99.90
35746;DHT22;21870;42.812;74.628;2023-04-15T08:36:07;17.10;99.90
35746;DHT22;21870;42.812;74.628;2023-04-15T08:38:34;17.00;99.90
35746;DHT22;21870;42.812;74.628;2023-04-15T08:41:06;17.00;99.90
35746;DHT22;21870;42.812;74.628;2023-04-15T08:43:34;16.90;99.90
35746;DHT22;21870;42.812;74.628;2023-04-15T08:46:03;16.80;99.90
35746;DHT22;21870;42.812;74.628;2023-04-15T08:48:32;16.70;99.90
35746;DHT22;21870;42.812;74.628;2023-04-15T08:51:00;16.60;99.90
35746;DHT22;21870;42.812;74.628;2023-04-15T08:53:28;16.70;99.90
35746;DHT22;21870;42.812;74.628;2023-04-15T08:55:56;16.70;99.90
35746;DHT22;21870;42.812;74.628;2023-04-15T08:58:24;16.60;99.90
35746;DHT22;21870;42.812;74.628;2023-04-15T09:00:50;16.70;99.90
35746;DHT22;21870;42.812;74.628;2023-04-15T09:03:17;16.70;99.90
35746;DHT22;21870;42.812;74.628;2023-04-15T09:05:44;16.60;99.90
35746;DHT22;21870;42.812;74.628;2023-04-15T09:08:10;16.60;99.90
35746;DHT22;21870;42.812;74.628;2023-04-15T09:10:36;16.60;99.90
35746;DHT22;21870;42.812;74.628;2023-04-15T09:13:02;16.50;99.90
35746;DHT22;21870;42.812;74.628;2023-04-15T09:15:29;16.60;99.90
35746;DHT22;21870;42.812;74.628;2023-04-15T09:17:57;16.60;99.90
35746;DHT22;21870;42.812;74.628;2023-04-15T09:20:23;16.60;99.90
35746;DHT22;21870;42.812;74.628;2023-04-15T09:22:49;16.70;99.90
35746;DHT22;21870;42.812;74.628;2023-04-15T09:27:59;16.70;99.90
35746;DHT22;21870;42.812;74.628;2023-04-15T09:30:27;16.80;99.90
35746;DHT22;21870;42.812;74.628;2023-04-15T09:32:58;16.80;99.90
35746;DHT22;21870;42.812;74.628;2023-04-15T09:35:25;16.90;99.90
35746;DHT22;21870;42.812;74.628;2023-04-15T09:37:53;16.90;99.90
35746;DHT22;21870;42.812;74.628;2023-04-15T09:40:34;16.90;99.90
35746;DHT22;21870;42.812;74.628;2023-04-15T09:43:01;17.00;99.90
35746;DHT22;21870;42.812;74.628;2023-04-15T09:45:28;16.90;99.90
35746;DHT22;21870;42.812;74.628;2023-04-15T09:47:55;17.00;99.90
35746;DHT22;21870;42.812;74.628;2023-04-15T09:50:21;17.00;99.90
35746;DHT22;21870;42.812;74.628;2023-04-15T09:52:51;17.00;99.90
35746;DHT22;21870;42.812;74.628;2023-04-15T09:55:18;16.90;99.90
35746;DHT22;21870;42.812;74.628;2023-04-15T09:57:44;16.80;99.90
35746;DHT22;21870;42.812;74.628;2023-04-15T10:00:12;16.80;99.90
35746;DHT22;21870;42.812;74.628;2023-04-15T10:02:42;16.70;99.90
35746;DHT22;21870;42.812;74.628;2023-04-15T10:05:13;16.70;99.90
35746;DHT22;21870;42.812;74.628;2023-04-15T10:07:40;16.70;99.90
35746;DHT22;21870;42.812;74.628;2023-04-15T10:10:07;16.60;99.90
35746;DHT22;21870;42.812;74.628;2023-04-15T10:12:36;16.60;99.90
35746;DHT22;21870;42.812;74.628;2023-04-15T10:15:03;16.60;99.90
35746;DHT22;21870;42.812;74.628;2023-04-15T10:17:32;16.50;99.90
35746;DHT22;21870;42.812;74.628;2023-04-15T10:20:03;16.40;99.90
35746;DHT22;21870;42.812;74.628;2023-04-15T10:22:30;16.50;99.90
35746;DHT22;21870;42.812;74.628;2023-04-15T10:24:58;16.60;99.90
35746;DHT22;21870;42.812;74.628;2023-04-15T10:27:26;16.60;99.90
35746;DHT22;21870;42.812;74.628;2023-04-15T10:29:53;16.50;99.90
35746;DHT22;21870;42.812;74.628;2023-04-15T10:32:20;16.50;99.90
35746;DHT22;21870;42.812;74.628;2023-04-15T10:34:48;16.40;99.90
35746;DHT22;21870;42.812;74.628;2023-04-15T10:37:33;16.40;99.90
35746;DHT22;21870;42.812;74.628;2023-04-15T10:39:59;16.40;99.90
35746;DHT22;21870;42.812;74.628;2023-04-15T10:42:33;16.40;99.90
35746;DHT22;21870;42.812;74.628;2023-04-15T10:45:00;16.20;99.90
35746;DHT22;21870;42.812;74.628;2023-04-15T10:47:26;16.10;99.90
35746;DHT22;21870;42.812;74.628;2023-04-15T10:50:00;16.00;99.90
35746;DHT22;21870;42.812;74.628;2023-04-15T10:52:27;16.00;99.90
35746;DHT22;21870;42.812;74.628;2023-04-15T10:55:12;16.00;99.90
35746;DHT22;21870;42.812;74.628;2023-04-15T10:57:41;15.90;99.90
35746;DHT22;21870;42.812;74.628;2023-04-15T11:02:53;16.00;99.90
35746;DHT22;21870;42.812;74.628;2023-04-15T11:05:22;16.00;99.90
35746;DHT22;21870;42.812;74.628;2023-04-15T11:08:11;15.90;99.90
35746;DHT22;21870;42.812;74.628;2023-04-15T11:13:14;16.00;99.90
35746;DHT22;21870;42.812;74.628;2023-04-15T11:15:45;16.00;99.90
35746;DHT22;21870;42.812;74.628;2023-04-15T11:18:23;16.00;99.90
35746;DHT22;21870;42.812;74.628;2023-04-15T11:20:54;16.10;99.90
35746;DHT22;21870;42.812;74.628;2023-04-15T11:26:03;16.20;99.90
35746;DHT22;21870;42.812;74.628;2023-04-15T11:28:35;16.20;99.90
35746;DHT22;21870;42.812;74.628;2023-04-15T11:31:06;16.10;99.90
35746;DHT22;21870;42.812;74.628;2023-04-15T11:33:33;16.10;99.90
35746;DHT22;21870;42.812;74.628;2023-04-15T11:36:00;16.00;99.90
35746;DHT22;21870;42.812;74.628;2023-04-15T11:38:26;15.80;99.90
35746;DHT22;21870;42.812;74.628;2023-04-15T11:40:53;15.90;99.90
35746;DHT22;21870;42.812;74.628;2023-04-15T11:43:20;15.90;99.90
35746;DHT22;21870;42.812;74.628;2023-04-15T11:46:05;15.80;99.90
35746;DHT22;21870;42.812;74.628;2023-04-15T11:48:33;15.90;99.90
35746;DHT22;21870;42.812;74.628;2023-04-15T11:51:01;15.90;99.90
35746;DHT22;21870;42.812;74.628;2023-04-15T11:56:16;15.90;99.90
35746;DHT22;21870;42.812;74.628;2023-04-15T11:58:43;15.90;99.90
35746;DHT22;21870;42.812;74.628;2023-04-15T12:01:10;15.90;99.90
35746;DHT22;21870;42.812;74.628;2023-04-15T12:03:40;15.80;99.90
35746;DHT22;21870;42.812;74.628;2023-04-15T12:16:49;15.60;99.90
35746;DHT22;21870;42.812;74.628;2023-04-15T12:19:39;15.50;99.90
35746;DHT22;21870;42.812;74.628;2023-04-15T12:22:11;15.40;99.90
35746;DHT22;21870;42.812;74.628;2023-04-15T12:24:38;15.30;99.90
35746;DHT22;21870;42.812;74.628;2023-04-15T12:27:14;15.20;99.90
35746;DHT22;21870;42.812;74.628;2023-04-15T12:29:41;15.20;99.90
35746;DHT22;21870;42.812;74.628;2023-04-15T12:32:10;15.00;99.90
35746;DHT22;21870;42.812;74.628;2023-04-15T12:34:44;14.90;99.90
35746;DHT22;21870;42.812;74.628;2023-04-15T12:37:14;14.70;99.90
35746;DHT22;21870;42.812;74.628;2023-04-15T12:39:42;14.50;99.90
35746;DHT22;21870;42.812;74.628;2023-04-15T12:42:09;14.50;99.90
35746;DHT22;21870;42.812;74.628;2023-04-15T12:44:37;14.60;99.90
35746;DHT22;21870;42.812;74.628;2023-04-15T12:47:04;14.50;99.90
35746;DHT22;21870;42.812;74.628;2023-04-15T12:49:31;14.60;99.90
35746;DHT22;21870;42.812;74.628;2023-04-15T12:51:58;14.60;99.90
35746;DHT22;21870;42.812;74.628;2023-04-15T12:54:25;14.60;99.90
35746;DHT22;21870;42.812;74.628;2023-04-15T12:56:52;14.50;99.90
35746;DHT22;21870;42.812;74.628;2023-04-15T12:59:19;14.30;99.90
35746;DHT22;21870;42.812;74.628;2023-04-15T13:01:46;14.20;99.90
35746;DHT22;21870;42.812;74.628;2023-04-15T13:04:13;14.30;99.90
35746;DHT22;21870;42.812;74.628;2023-04-15T13:06:39;14.30;99.90
35746;DHT22;21870;42.812;74.628;2023-04-15T13:09:05;14.30;99.90
35746;DHT22;21870;42.812;74.628;2023-04-15T13:11:32;14.30;99.90
35746;DHT22;21870;42.812;74.628;2023-04-15T13:14:04;14.20;99.90
35746;DHT22;21870;42.812;74.628;2023-04-15T13:16:32;14.10;99.90
35746;DHT22;21870;42.812;74.628;2023-04-15T13:18:59;13.90;99.90
35746;DHT22;21870;42.812;74.628;2023-04-15T13:21:25;13.80;99.90
35746;DHT22;21870;42.812;74.628;2023-04-15T13:23:52;13.90;99.90
35746;DHT22;21870;42.812;74.628;2023-04-15T13:26:18;13.80;99.90
35746;DHT22;21870;42.812;74.628;2023-04-15T13:28:44;13.80;99.90
35746;DHT22;21870;42.812;74.628;2023-04-15T13:31:10;13.70;99.90
35746;DHT22;21870;42.812;74.628;2023-04-15T13:33:37;13.60;99.90
35746;DHT22;21870;42.812;74.628;2023-04-15T13:36:03;13.50;99.90
35746;DHT22;21870;42.812;74.628;2023-04-15T13:38:29;13.40;99.90
35746;DHT22;21870;42.812;74.628;2023-04-15T13:40:55;13.40;99.90
35746;DHT22;21870;42.812;74.628;2023-04-15T13:43:21;13.20;99.90
35746;DHT22;21870;42.812;74.628;2023-04-15T13:45:48;13.20;99.90
35746;DHT22;21870;42.812;74.628;2023-04-15T13:48:14;13.20;99.90
35746;DHT22;21870;42.812;74.628;2023-04-15T13:50:40;13.20;99.90
35746;DHT22;21870;42.812;74.628;2023-04-15T13:53:10;13.20;99.90
35746;DHT22;21870;42.812;74.628;2023-04-15T13:55:36;13.20;99.90
35746;DHT22;21870;42.812;74.628;2023-04-15T13:58:10;13.20;99.90
35746;DHT22;21870;42.812;74.628;2023-04-15T14:00:36;13.20;99.90
35746;DHT22;21870;42.812;74.628;2023-04-15T14:03:02;13.20;99.90
35746;DHT22;21870;42.812;74.628;2023-04-15T14:05:28;13.10;99.90
35746;DHT22;21870;42.812;74.628;2023-04-15T14:07:54;13.20;99.90
35746;DHT22;21870;42.812;74.628;2023-04-15T14:10:20;13.20;99.90
35746;DHT22;21870;42.812;74.628;2023-04-15T14:12:46;13.20;99.90
35746;DHT22;21870;42.812;74.628;2023-04-15T14:15:12;13.20;99.90
35746;DHT22;21870;42.812;74.628;2023-04-15T14:17:38;13.00;99.90
35746;DHT22;21870;42.812;74.628;2023-04-15T14:20:07;13.00;99.90
35746;DHT22;21870;42.812;74.628;2023-04-15T14:22:34;12.90;99.90
35746;DHT22;21870;42.812;74.628;2023-04-15T14:25:00;12.90;99.90
35746;DHT22;21870;42.812;74.628;2023-04-15T14:27:26;12.90;99.90
35746;DHT22;21870;42.812;74.628;2023-04-15T14:29:53;12.90;99.90
35746;DHT22;21870;42.812;74.628;2023-04-15T14:32:19;13.00;99.90
35746;DHT22;21870;42.812;74.628;2023-04-15T14:34:45;13.10;99.90
35746;DHT22;21870;42.812;74.628;2023-04-15T14:37:11;13.10;99.90
35746;DHT22;21870;42.812;74.628;2023-04-15T14:39:38;13.20;99.90
35746;DHT22;21870;42.812;74.628;2023-04-15T14:42:05;13.20;99.90
35746;DHT22;21870;42.812;74.628;2023-04-15T14:44:32;13.30;99.90
35746;DHT22;21870;42.812;74.628;2023-04-15T14:46:58;13.20;99.90
35746;DHT22;21870;42.812;74.628;2023-04-15T14:49:24;13.10;99.90
35746;DHT22;21870;42.812;74.628;2023-04-15T14:51:50;13.00;99.90
35746;DHT22;21870;42.812;74.628;2023-04-15T14:54:16;13.00;99.90
35746;DHT22;21870;42.812;74.628;2023-04-15T14:56:42;12.90;99.90
35746;DHT22;21870;42.812;74.628;2023-04-15T14:59:08;12.80;99.90
35746;DHT22;21870;42.812;74.628;2023-04-15T15:01:34;12.80;99.90
35746;DHT22;21870;42.812;74.628;2023-04-15T15:04:01;12.70;99.90
35746;DHT22;21870;42.812;74.628;2023-04-15T15:06:27;12.70;99.90
35746;DHT22;21870;42.812;74.628;2023-04-15T15:08:53;12.60;99.90
35746;DHT22;21870;42.812;74.628;2023-04-15T15:11:19;12.60;99.90
35746;DHT22;21870;42.812;74.628;2023-04-15T15:13:45;12.60;99.90
35746;DHT22;21870;42.812;74.628;2023-04-15T15:16:12;12.50;99.90
35746;DHT22;21870;42.812;74.628;2023-04-15T15:18:38;12.50;99.90
35746;DHT22;21870;42.812;74.628;2023-04-15T15:21:04;12.50;99.90
35746;DHT22;21870;42.812;74.628;2023-04-15T15:23:30;12.30;99.90
35746;DHT22;21870;42.812;74.628;2023-04-15T15:25:57;12.20;99.90
35746;DHT22;21870;42.812;74.628;2023-04-15T15:28:23;12.10;99.90
35746;DHT22;21870;42.812;74.628;2023-04-15T15:30:50;12.20;99.90
35746;DHT22;21870;42.812;74.628;2023-04-15T15:33:16;12.20;99.90
35746;DHT22;21870;42.812;74.628;2023-04-15T15:35:42;12.30;99.90
35746;DHT22;21870;42.812;74.628;2023-04-15T15:38:11;12.30;99.90